ADDS TAF Data INFO
IDs: Format: Raw Decoded Include METARs

Data at: 1734 UTC 23 Jul 2018

KPKB 231653Z 14004KT 10SM BKN030 A2992

KPKB 231304Z 2313/2412 VRB03KT P6SM SCT045
  FM231600 15006KT P6SM SCT035